sensor_id;sensor_type;location;lat;lon;timestamp;pressure;altitude;pressure_sealevel;temperature;humidity
6680;BME280;3376;42.664;23.346;2022-09-30T00:00:56;94209.88;;;15.68;nan
6680;BME280;3376;42.664;23.346;2022-09-30T00:03:23;94210.59;;;15.50;nan
6680;BME280;3376;42.664;23.346;2022-09-30T00:05:57;94228.03;;;15.56;nan
6680;BME280;3376;42.664;23.346;2022-09-30T00:08:24;94237.69;;;15.56;nan
6680;BME280;3376;42.664;23.346;2022-09-30T00:10:59;94189.47;;;15.27;nan
6680;BME280;3376;42.664;23.346;2022-09-30T00:13:26;94247.84;;;15.64;nan
6680;BME280;3376;42.664;23.346;2022-09-30T00:15:55;94234.25;;;15.55;nan
6680;BME280;3376;42.664;23.346;2022-09-30T00:18:22;94239.41;;;15.68;nan
6680;BME280;3376;42.664;23.346;2022-09-30T00:20:49;94231.97;;;15.41;nan
6680;BME280;3376;42.664;23.346;2022-09-30T00:23:17;94228.22;;;15.61;nan
6680;BME280;3376;42.664;23.346;2022-09-30T00:25:44;94225.16;;;15.64;nan
6680;BME280;3376;42.664;23.346;2022-09-30T00:28:12;94246.88;;;15.65;nan
6680;BME280;3376;42.664;23.346;2022-09-30T00:30:39;94266.88;;;15.71;nan
6680;BME280;3376;42.664;23.346;2022-09-30T00:33:09;94266.56;;;15.61;nan
6680;BME280;3376;42.664;23.346;2022-09-30T00:35:36;94259.75;;;15.60;nan
6680;BME280;3376;42.664;23.346;2022-09-30T00:38:03;94256.13;;;15.61;nan
6680;BME280;3376;42.664;23.346;2022-09-30T00:40:30;94267.00;;;15.58;nan
6680;BME280;3376;42.664;23.346;2022-09-30T00:42:57;94247.03;;;15.70;nan
6680;BME280;3376;42.664;23.346;2022-09-30T00:45:26;94230.84;;;15.55;nan
6680;BME280;3376;42.664;23.346;2022-09-30T00:47:56;94230.84;;;15.55;nan
6680;BME280;3376;42.664;23.346;2022-09-30T00:50:32;94222.03;;;15.56;nan
6680;BME280;3376;42.664;23.346;2022-09-30T00:53:12;94219.91;;;15.40;nan
6680;BME280;3376;42.664;23.346;2022-09-30T00:55:45;94239.38;;;15.44;nan
6680;BME280;3376;42.664;23.346;2022-09-30T00:58:17;94181.50;;;15.22;nan
6680;BME280;3376;42.664;23.346;2022-09-30T01:00:47;94230.16;;;15.34;nan
6680;BME280;3376;42.664;23.346;2022-09-30T01:03:16;94240.28;;;15.24;nan
6680;BME280;3376;42.664;23.346;2022-09-30T01:05:46;94232.53;;;15.11;nan
6680;BME280;3376;42.664;23.346;2022-09-30T01:08:13;94225.75;;;15.04;nan
6680;BME280;3376;42.664;23.346;2022-09-30T01:10:42;94240.94;;;15.13;nan
6680;BME280;3376;42.664;23.346;2022-09-30T01:13:10;94229.94;;;15.11;nan
6680;BME280;3376;42.664;23.346;2022-09-30T01:15:48;94220.91;;;15.07;nan
6680;BME280;3376;42.664;23.346;2022-09-30T01:18:25;94221.28;;;15.11;nan
6680;BME280;3376;42.664;23.346;2022-09-30T01:21:10;94213.56;;;14.91;nan
6680;BME280;3376;42.664;23.346;2022-09-30T01:24:03;94230.16;;;15.03;nan
6680;BME280;3376;42.664;23.346;2022-09-30T01:29:50;94240.16;;;15.13;nan
6680;BME280;3376;42.664;23.346;2022-09-30T01:32:38;94243.44;;;14.95;nan
6680;BME280;3376;42.664;23.346;2022-09-30T01:35:10;94203.19;;;14.85;nan
6680;BME280;3376;42.664;23.346;2022-09-30T01:37:49;94243.78;;;15.05;nan
6680;BME280;3376;42.664;23.346;2022-09-30T01:40:25;94231.81;;;14.91;nan
6680;BME280;3376;42.664;23.346;2022-09-30T01:43:02;94228.72;;;14.70;nan
6680;BME280;3376;42.664;23.346;2022-09-30T01:45:35;94198.91;;;14.59;nan
6680;BME280;3376;42.664;23.346;2022-09-30T01:48:07;94238.53;;;14.74;nan
6680;BME280;3376;42.664;23.346;2022-09-30T01:50:43;94198.34;;;14.44;nan
6680;BME280;3376;42.664;23.346;2022-09-30T01:53:18;94236.59;;;14.63;nan
6680;BME280;3376;42.664;23.346;2022-09-30T01:55:49;94239.97;;;14.70;nan
6680;BME280;3376;42.664;23.346;2022-09-30T01:58:20;94227.91;;;14.69;nan
6680;BME280;3376;42.664;23.346;2022-09-30T02:00:54;94236.34;;;14.71;nan
6680;BME280;3376;42.664;23.346;2022-09-30T02:03:28;94228.97;;;14.62;nan
6680;BME280;3376;42.664;23.346;2022-09-30T02:06:00;94241.03;;;14.56;nan
6680;BME280;3376;42.664;23.346;2022-09-30T02:08:33;94244.63;;;14.55;nan
6680;BME280;3376;42.664;23.346;2022-09-30T02:11:06;94239.44;;;14.49;nan
6680;BME280;3376;42.664;23.346;2022-09-30T02:13:39;94227.66;;;14.40;nan
6680;BME280;3376;42.664;23.346;2022-09-30T02:16:11;94247.84;;;14.51;nan
6680;BME280;3376;42.664;23.346;2022-09-30T02:18:44;94093.28;;;13.29;nan
6680;BME280;3376;42.664;23.346;2022-09-30T02:21:16;94247.84;;;14.51;nan
6680;BME280;3376;42.664;23.346;2022-09-30T02:23:48;94252.06;;;14.52;nan
6680;BME280;3376;42.664;23.346;2022-09-30T02:26:22;94122.00;;;13.73;nan
6680;BME280;3376;42.664;23.346;2022-09-30T02:28:53;94238.06;;;14.46;nan
6680;BME280;3376;42.664;23.346;2022-09-30T02:31:22;94249.28;;;14.40;nan
6680;BME280;3376;42.664;23.346;2022-09-30T02:33:55;94256.91;;;14.48;nan
6680;BME280;3376;42.664;23.346;2022-09-30T02:36:27;94248.69;;;14.38;nan
6680;BME280;3376;42.664;23.346;2022-09-30T02:39:00;94264.13;;;14.46;nan
6680;BME280;3376;42.664;23.346;2022-09-30T02:41:29;94253.91;;;14.45;nan
6680;BME280;3376;42.664;23.346;2022-09-30T02:43:59;94246.88;;;14.45;nan
6680;BME280;3376;42.664;23.346;2022-09-30T02:46:35;94244.66;;;14.42;nan
6680;BME280;3376;42.664;23.346;2022-09-30T02:49:07;94239.09;;;14.32;nan
6680;BME280;3376;42.664;23.346;2022-09-30T02:51:39;94238.69;;;14.35;nan
6680;BME280;3376;42.664;23.346;2022-09-30T02:54:16;94040.50;;;13.09;nan
6680;BME280;3376;42.664;23.346;2022-09-30T02:56:51;94089.28;;;13.33;nan
6680;BME280;3376;42.664;23.346;2022-09-30T02:59:20;94248.09;;;14.23;nan
6680;BME280;3376;42.664;23.346;2022-09-30T03:01:47;94244.69;;;14.16;nan
6680;BME280;3376;42.664;23.346;2022-09-30T03:04:19;94248.91;;;14.24;nan
6680;BME280;3376;42.664;23.346;2022-09-30T03:06:48;94260.97;;;14.31;nan
6680;BME280;3376;42.664;23.346;2022-09-30T03:09:15;94246.94;;;14.26;nan
6680;BME280;3376;42.664;23.346;2022-09-30T03:11:42;94276.59;;;14.31;nan
6680;BME280;3376;42.664;23.346;2022-09-30T03:14:33;94260.53;;;14.21;nan
6680;BME280;3376;42.664;23.346;2022-09-30T03:17:25;94276.38;;;14.26;nan
6680;BME280;3376;42.664;23.346;2022-09-30T03:23:21;94275.38;;;14.27;nan
6680;BME280;3376;42.664;23.346;2022-09-30T03:25:57;94262.97;;;14.29;nan
6680;BME280;3376;42.664;23.346;2022-09-30T03:28:32;94257.75;;;14.29;nan
6680;BME280;3376;42.664;23.346;2022-09-30T03:31:04;94262.13;;;14.35;nan
6680;BME280;3376;42.664;23.346;2022-09-30T03:33:41;94262.94;;;14.36;nan
6680;BME280;3376;42.664;23.346;2022-09-30T03:36:19;94247.31;;;14.36;nan
6680;BME280;3376;42.664;23.346;2022-09-30T03:38:54;94244.72;;;14.29;nan
6680;BME280;3376;42.664;23.346;2022-09-30T03:41:27;94267.34;;;14.35;nan
6680;BME280;3376;42.664;23.346;2022-09-30T03:44:00;94244.13;;;14.21;nan
6680;BME280;3376;42.664;23.346;2022-09-30T03:46:31;94266.53;;;14.41;nan
6680;BME280;3376;42.664;23.346;2022-09-30T03:49:01;94269.94;;;14.42;nan
6680;BME280;3376;42.664;23.346;2022-09-30T03:51:34;94257.75;;;14.29;nan
6680;BME280;3376;42.664;23.346;2022-09-30T03:54:05;94266.16;;;14.18;nan
6680;BME280;3376;42.664;23.346;2022-09-30T03:56:32;94280.19;;;14.43;nan
6680;BME280;3376;42.664;23.346;2022-09-30T03:58:59;94302.63;;;14.44;nan
6680;BME280;3376;42.664;23.346;2022-09-30T04:01:26;94304.81;;;14.47;nan
6680;BME280;3376;42.664;23.346;2022-09-30T04:03:53;94221.91;;;13.98;nan
6680;BME280;3376;42.664;23.346;2022-09-30T04:06:22;94292.38;;;14.49;nan
6680;BME280;3376;42.664;23.346;2022-09-30T04:08:50;94301.41;;;14.53;nan
6680;BME280;3376;42.664;23.346;2022-09-30T04:11:18;94299.34;;;14.68;nan
6680;BME280;3376;42.664;23.346;2022-09-30T04:13:45;94295.72;;;14.69;nan
6680;BME280;3376;42.664;23.346;2022-09-30T04:16:12;94291.75;;;14.60;nan
6680;BME280;3376;42.664;23.346;2022-09-30T04:18:39;94230.66;;;14.24;nan
6680;BME280;3376;42.664;23.346;2022-09-30T04:21:08;94278.16;;;14.39;nan
6680;BME280;3376;42.664;23.346;2022-09-30T04:23:35;94304.22;;;14.52;nan
6680;BME280;3376;42.664;23.346;2022-09-30T04:26:04;94282.97;;;14.48;nan
6680;BME280;3376;42.664;23.346;2022-09-30T04:28:33;94132.84;;;13.64;nan
6680;BME280;3376;42.664;23.346;2022-09-30T04:31:00;94234.69;;;14.26;nan
6680;BME280;3376;42.664;23.346;2022-09-30T04:33:28;94300.00;;;14.51;nan
6680;BME280;3376;42.664;23.346;2022-09-30T04:35:55;94311.00;;;14.53;nan
6680;BME280;3376;42.664;23.346;2022-09-30T04:38:23;94311.84;;;14.40;nan
6680;BME280;3376;42.664;23.346;2022-09-30T04:40:51;94315.03;;;14.42;nan
6680;BME280;3376;42.664;23.346;2022-09-30T04:43:21;94310.22;;;14.46;nan
6680;BME280;3376;42.664;23.346;2022-09-30T04:45:49;94285.41;;;14.30;nan
6680;BME280;3376;42.664;23.346;2022-09-30T04:48:19;94166.31;;;13.41;nan
6680;BME280;3376;42.664;23.346;2022-09-30T04:50:47;94319.47;;;14.35;nan
6680;BME280;3376;42.664;23.346;2022-09-30T04:53:14;94321.88;;;14.43;nan
6680;BME280;3376;42.664;23.346;2022-09-30T04:55:42;94327.88;;;14.44;nan
6680;BME280;3376;42.664;23.346;2022-09-30T04:58:09;94344.91;;;14.46;nan
6680;BME280;3376;42.664;23.346;2022-09-30T05:00:37;94316.66;;;14.30;nan
6680;BME280;3376;42.664;23.346;2022-09-30T05:03:04;94353.50;;;14.47;nan
6680;BME280;3376;42.664;23.346;2022-09-30T05:05:31;94349.13;;;14.47;nan
6680;BME280;3376;42.664;23.346;2022-09-30T05:07:59;94302.25;;;14.28;nan
6680;BME280;3376;42.664;23.346;2022-09-30T05:10:26;94329.88;;;14.48;nan
6680;BME280;3376;42.664;23.346;2022-09-30T05:12:54;94346.28;;;14.62;nan
6680;BME280;3376;42.664;23.346;2022-09-30T05:15:22;94331.44;;;14.62;nan
6680;BME280;3376;42.664;23.346;2022-09-30T05:17:50;94327.00;;;14.69;nan
6680;BME280;3376;42.664;23.346;2022-09-30T05:20:18;94303.63;;;14.50;nan
6680;BME280;3376;42.664;23.346;2022-09-30T05:22:45;94364.66;;;14.93;nan
6680;BME280;3376;42.664;23.346;2022-09-30T05:25:12;94350.25;;;14.84;nan
6680;BME280;3376;42.664;23.346;2022-09-30T05:27:39;94365.25;;;15.01;nan
6680;BME280;3376;42.664;23.346;2022-09-30T05:30:06;94369.84;;;15.06;nan
6680;BME280;3376;42.664;23.346;2022-09-30T05:32:33;94358.94;;;15.15;nan
6680;BME280;3376;42.664;23.346;2022-09-30T05:35:02;94366.56;;;15.23;nan
6680;BME280;3376;42.664;23.346;2022-09-30T05:37:29;94349.78;;;15.06;nan
6680;BME280;3376;42.664;23.346;2022-09-30T05:39:56;94370.31;;;15.34;nan
6680;BME280;3376;42.664;23.346;2022-09-30T05:42:23;94372.94;;;15.27;nan
6680;BME280;3376;42.664;23.346;2022-09-30T05:44:50;94395.63;;;15.33;nan
6680;BME280;3376;42.664;23.346;2022-09-30T05:47:17;94391.38;;;15.46;nan
6680;BME280;3376;42.664;23.346;2022-09-30T05:49:44;94382.56;;;15.40;nan
6680;BME280;3376;42.664;23.346;2022-09-30T05:52:12;94386.34;;;15.51;nan
6680;BME280;3376;42.664;23.346;2022-09-30T05:54:39;94400.16;;;15.58;nan
6680;BME280;3376;42.664;23.346;2022-09-30T05:57:07;94395.72;;;15.58;nan
6680;BME280;3376;42.664;23.346;2022-09-30T05:59:34;94246.03;;;14.58;nan
6680;BME280;3376;42.664;23.346;2022-09-30T06:02:02;94389.13;;;15.56;nan
6680;BME280;3376;42.664;23.346;2022-09-30T06:04:29;94402.53;;;15.66;nan
6680;BME280;3376;42.664;23.346;2022-09-30T06:06:56;94399.16;;;15.90;nan
6680;BME280;3376;42.664;23.346;2022-09-30T06:09:24;94393.94;;;15.90;nan
6680;BME280;3376;42.664;23.346;2022-09-30T06:11:51;94397.81;;;15.81;nan
6680;BME280;3376;42.664;23.346;2022-09-30T06:14:24;94405.22;;;15.84;nan
6680;BME280;3376;42.664;23.346;2022-09-30T06:16:53;94405.97;;;15.97;nan
6680;BME280;3376;42.664;23.346;2022-09-30T06:19:20;94417.69;;;16.13;nan
6680;BME280;3376;42.664;23.346;2022-09-30T06:21:46;94412.66;;;16.18;nan
6680;BME280;3376;42.664;23.346;2022-09-30T06:24:13;94416.59;;;16.27;nan
6680;BME280;3376;42.664;23.346;2022-09-30T06:26:41;94411.75;;;16.30;nan
6680;BME280;3376;42.664;23.346;2022-09-30T06:29:08;94418.69;;;16.43;nan
6680;BME280;3376;42.664;23.346;2022-09-30T06:31:35;94427.53;;;16.42;nan
6680;BME280;3376;42.664;23.346;2022-09-30T06:34:02;94427.03;;;16.58;nan
6680;BME280;3376;42.664;23.346;2022-09-30T06:36:30;94381.50;;;16.41;nan
6680;BME280;3376;42.664;23.346;2022-09-30T06:38:59;94416.13;;;16.86;nan
6680;BME280;3376;42.664;23.346;2022-09-30T06:41:26;94418.22;;;16.77;nan
6680;BME280;3376;42.664;23.346;2022-09-30T06:43:55;94423.91;;;16.92;nan
6680;BME280;3376;42.664;23.346;2022-09-30T06:46:23;94409.69;;;16.88;nan
6680;BME280;3376;42.664;23.346;2022-09-30T06:48:53;94437.19;;;17.15;nan
6680;BME280;3376;42.664;23.346;2022-09-30T06:51:20;94442.50;;;17.27;nan
6680;BME280;3376;42.664;23.346;2022-09-30T06:53:49;94457.59;;;17.25;nan
6680;BME280;3376;42.664;23.346;2022-09-30T06:56:17;94464.50;;;17.19;nan
6680;BME280;3376;42.664;23.346;2022-09-30T06:58:44;94469.66;;;17.08;nan
6680;BME280;3376;42.664;23.346;2022-09-30T07:01:13;94449.09;;;17.11;nan
6680;BME280;3376;42.664;23.346;2022-09-30T07:03:42;94480.97;;;17.26;nan
6680;BME280;3376;42.664;23.346;2022-09-30T07:06:11;94476.69;;;17.32;nan
6680;BME280;3376;42.664;23.346;2022-09-30T07:08:38;94472.28;;;17.50;nan
6680;BME280;3376;42.664;23.346;2022-09-30T07:11:06;94475.53;;;17.64;nan
6680;BME280;3376;42.664;23.346;2022-09-30T07:13:38;94485.78;;;17.84;nan
6680;BME280;3376;42.664;23.346;2022-09-30T07:16:06;94481.84;;;18.22;nan
6680;BME280;3376;42.664;23.346;2022-09-30T07:18:34;94492.19;;;18.88;nan
6680;BME280;3376;42.664;23.346;2022-09-30T07:21:01;94493.13;;;19.05;nan
6680;BME280;3376;42.664;23.346;2022-09-30T07:23:28;94494.81;;;19.69;nan
6680;BME280;3376;42.664;23.346;2022-09-30T07:25:57;94490.41;;;19.98;nan
6680;BME280;3376;42.664;23.346;2022-09-30T07:28:28;94478.38;;;20.02;nan
6680;BME280;3376;42.664;23.346;2022-09-30T07:30:57;94487.72;;;20.21;nan
6680;BME280;3376;42.664;23.346;2022-09-30T07:33:25;94512.00;;;20.39;nan
6680;BME280;3376;42.664;23.346;2022-09-30T07:35:56;94522.47;;;20.79;nan
6680;BME280;3376;42.664;23.346;2022-09-30T07:38:25;94527.91;;;20.89;nan
6680;BME280;3376;42.664;23.346;2022-09-30T07:40:54;94512.72;;;20.79;nan
6680;BME280;3376;42.664;23.346;2022-09-30T07:43:22;94517.16;;;21.07;nan
6680;BME280;3376;42.664;23.346;2022-09-30T07:45:49;94512.59;;;21.36;nan
6680;BME280;3376;42.664;23.346;2022-09-30T07:48:21;94506.63;;;22.00;nan
6680;BME280;3376;42.664;23.346;2022-09-30T07:51:21;94499.69;;;22.15;nan
6680;BME280;3376;42.664;23.346;2022-09-30T07:53:50;94501.41;;;22.53;nan
6680;BME280;3376;42.664;23.346;2022-09-30T07:56:18;94489.16;;;22.69;nan
6680;BME280;3376;42.664;23.346;2022-09-30T07:58:45;94479.91;;;22.98;nan
6680;BME280;3376;42.664;23.346;2022-09-30T08:01:12;94529.66;;;23.79;nan
6680;BME280;3376;42.664;23.346;2022-09-30T08:03:41;94520.50;;;23.97;nan
6680;BME280;3376;42.664;23.346;2022-09-30T08:06:11;94536.38;;;24.59;nan
6680;BME280;3376;42.664;23.346;2022-09-30T08:08:39;94540.72;;;24.90;nan
6680;BME280;3376;42.664;23.346;2022-09-30T08:11:06;94532.53;;;25.31;nan
6680;BME280;3376;42.664;23.346;2022-09-30T08:13:33;94545.75;;;25.11;nan
6680;BME280;3376;42.664;23.346;2022-09-30T08:16:00;94539.16;;;25.39;nan
6680;BME280;3376;42.664;23.346;2022-09-30T08:18:27;94539.69;;;25.51;nan
6680;BME280;3376;42.664;23.346;2022-09-30T08:20:55;94538.31;;;25.79;nan
6680;BME280;3376;42.664;23.346;2022-09-30T08:23:22;94544.41;;;26.04;nan
6680;BME280;3376;42.664;23.346;2022-09-30T08:25:50;94530.81;;;26.11;nan
6680;BME280;3376;42.664;23.346;2022-09-30T08:28:17;94553.25;;;26.48;nan
6680;BME280;3376;42.664;23.346;2022-09-30T08:30:44;94543.06;;;26.65;nan
6680;BME280;3376;42.664;23.346;2022-09-30T08:33:11;94552.66;;;26.72;nan
6680;BME280;3376;42.664;23.346;2022-09-30T08:35:38;94560.66;;;26.67;nan
6680;BME280;3376;42.664;23.346;2022-09-30T08:38:05;94531.47;;;26.51;nan
6680;BME280;3376;42.664;23.346;2022-09-30T08:40:33;94560.81;;;27.24;nan
6680;BME280;3376;42.664;23.346;2022-09-30T08:43:17;94553.38;;;26.87;nan
6680;BME280;3376;42.664;23.346;2022-09-30T08:45:54;94558.09;;;26.95;nan
6680;BME280;3376;42.664;23.346;2022-09-30T08:48:39;94561.09;;;27.22;nan
6680;BME280;3376;42.664;23.346;2022-09-30T08:51:21;94558.16;;;27.62;nan
6680;BME280;3376;42.664;23.346;2022-09-30T08:53:53;94512.28;;;27.42;nan
6680;BME280;3376;42.664;23.346;2022-09-30T08:56:23;94568.72;;;28.01;nan
6680;BME280;3376;42.664;23.346;2022-09-30T08:58:55;94578.25;;;28.07;nan
6680;BME280;3376;42.664;23.346;2022-09-30T09:01:29;94571.13;;;28.50;nan
6680;BME280;3376;42.664;23.346;2022-09-30T09:03:57;94577.53;;;28.25;nan
6680;BME280;3376;42.664;23.346;2022-09-30T09:06:28;94570.25;;;28.31;nan
6680;BME280;3376;42.664;23.346;2022-09-30T09:09:08;94570.56;;;28.53;nan
6680;BME280;3376;42.664;23.346;2022-09-30T09:11:49;94574.63;;;28.50;nan
6680;BME280;3376;42.664;23.346;2022-09-30T09:14:28;94584.56;;;28.16;nan
6680;BME280;3376;42.664;23.346;2022-09-30T09:17:04;94551.97;;;28.24;nan
6680;BME280;3376;42.664;23.346;2022-09-30T09:19:36;94575.47;;;28.64;nan
6680;BME280;3376;42.664;23.346;2022-09-30T09:22:04;94570.03;;;28.27;nan
6680;BME280;3376;42.664;23.346;2022-09-30T09:24:35;94569.06;;;27.95;nan
6680;BME280;3376;42.664;23.346;2022-09-30T09:27:16;94587.06;;;28.31;nan
6680;BME280;3376;42.664;23.346;2022-09-30T09:29:51;94590.22;;;28.80;nan
6680;BME280;3376;42.664;23.346;2022-09-30T09:32:23;94587.63;;;28.94;nan
6680;BME280;3376;42.664;23.346;2022-09-30T09:34:55;94552.88;;;28.80;nan
6680;BME280;3376;42.664;23.346;2022-09-30T09:37:32;94590.78;;;28.59;nan
6680;BME280;3376;42.664;23.346;2022-09-30T09:40:24;94571.84;;;28.32;nan
6680;BME280;3376;42.664;23.346;2022-09-30T09:43:03;94579.88;;;27.74;nan
6680;BME280;3376;42.664;23.346;2022-09-30T09:45:41;94544.09;;;27.57;nan
6680;BME280;3376;42.664;23.346;2022-09-30T09:48:12;94586.97;;;27.84;nan
6680;BME280;3376;42.664;23.346;2022-09-30T09:50:49;94567.13;;;27.71;nan
6680;BME280;3376;42.664;23.346;2022-09-30T09:53:36;94560.63;;;27.83;nan
6680;BME280;3376;42.664;23.346;2022-09-30T09:56:12;94571.16;;;27.98;nan
6680;BME280;3376;42.664;23.346;2022-09-30T09:59:08;94574.97;;;28.39;nan
6680;BME280;3376;42.664;23.346;2022-09-30T10:01:39;94555.59;;;28.33;nan
6680;BME280;3376;42.664;23.346;2022-09-30T10:04:17;94569.84;;;28.42;nan
6680;BME280;3376;42.664;23.346;2022-09-30T10:06:49;94582.78;;;28.77;nan
6680;BME280;3376;42.664;23.346;2022-09-30T10:09:38;94583.56;;;29.20;nan
6680;BME280;3376;42.664;23.346;2022-09-30T10:12:25;94570.56;;;29.83;nan
6680;BME280;3376;42.664;23.346;2022-09-30T10:14:58;94587.44;;;30.11;nan
6680;BME280;3376;42.664;23.346;2022-09-30T10:17:29;94579.81;;;30.04;nan
6680;BME280;3376;42.664;23.346;2022-09-30T10:20:03;94530.06;;;29.76;nan
6680;BME280;3376;42.664;23.346;2022-09-30T10:22:33;94555.31;;;29.83;nan
6680;BME280;3376;42.664;23.346;2022-09-30T10:25:17;94579.31;;;30.02;nan
6680;BME280;3376;42.664;23.346;2022-09-30T10:27:53;94583.50;;;30.22;nan
6680;BME280;3376;42.664;23.346;2022-09-30T10:30:34;94570.66;;;30.64;nan
6680;BME280;3376;42.664;23.346;2022-09-30T10:33:21;94572.03;;;30.35;nan
6680;BME280;3376;42.664;23.346;2022-09-30T10:35:54;94565.97;;;30.56;nan
6680;BME280;3376;42.664;23.346;2022-09-30T10:38:22;94568.59;;;30.61;nan
6680;BME280;3376;42.664;23.346;2022-09-30T10:40:50;94571.63;;;30.68;nan
6680;BME280;3376;42.664;23.346;2022-09-30T10:43:23;94563.03;;;30.44;nan
6680;BME280;3376;42.664;23.346;2022-09-30T10:45:52;94559.56;;;30.57;nan
6680;BME280;3376;42.664;23.346;2022-09-30T10:48:22;94571.06;;;30.85;nan
6680;BME280;3376;42.664;23.346;2022-09-30T10:53:21;94569.16;;;31.35;nan
6680;BME280;3376;42.664;23.346;2022-09-30T10:55:49;94575.44;;;31.52;nan
6680;BME280;3376;42.664;23.346;2022-09-30T10:58:42;94548.53;;;31.57;nan
6680;BME280;3376;42.664;23.346;2022-09-30T11:01:19;94563.06;;;31.87;nan
6680;BME280;3376;42.664;23.346;2022-09-30T11:03:58;94565.75;;;31.87;nan
6680;BME280;3376;42.664;23.346;2022-09-30T11:06:31;94548.47;;;31.49;nan
6680;BME280;3376;42.664;23.346;2022-09-30T11:09:03;94567.34;;;31.44;nan
6680;BME280;3376;42.664;23.346;2022-09-30T11:11:37;94569.41;;;31.11;nan
6680;BME280;3376;42.664;23.346;2022-09-30T11:14:18;94571.81;;;30.99;nan
6680;BME280;3376;42.664;23.346;2022-09-30T11:16:59;94570.25;;;30.84;nan
6680;BME280;3376;42.664;23.346;2022-09-30T11:19:34;94549.78;;;30.53;nan
6680;BME280;3376;42.664;23.346;2022-09-30T11:22:27;94579.19;;;30.66;nan
6680;BME280;3376;42.664;23.346;2022-09-30T11:24:57;94574.19;;;31.00;nan
6680;BME280;3376;42.664;23.346;2022-09-30T11:27:33;94573.19;;;31.32;nan
6680;BME280;3376;42.664;23.346;2022-09-30T11:30:09;94569.66;;;31.37;nan
6680;BME280;3376;42.664;23.346;2022-09-30T11:32:45;94587.78;;;31.40;nan
6680;BME280;3376;42.664;23.346;2022-09-30T11:35:32;94544.78;;;31.23;nan
6680;BME280;3376;42.664;23.346;2022-09-30T11:41:05;94578.94;;;32.05;nan
6680;BME280;3376;42.664;23.346;2022-09-30T11:43:40;94582.72;;;32.04;nan
6680;BME280;3376;42.664;23.346;2022-09-30T11:46:45;94572.00;;;31.82;nan
6680;BME280;3376;42.664;23.346;2022-09-30T11:49:25;94579.25;;;32.04;nan
6680;BME280;3376;42.664;23.346;2022-09-30T11:52:03;94572.44;;;31.98;nan
6680;BME280;3376;42.664;23.346;2022-09-30T11:54:46;94563.31;;;31.55;nan
6680;BME280;3376;42.664;23.346;2022-09-30T11:57:21;94544.41;;;31.16;nan
6680;BME280;3376;42.664;23.346;2022-09-30T11:59:54;94571.56;;;31.23;nan
6680;BME280;3376;42.664;23.346;2022-09-30T12:02:28;94571.31;;;31.33;nan
6680;BME280;3376;42.664;23.346;2022-09-30T12:04:59;94564.88;;;30.98;nan
6680;BME280;3376;42.664;23.346;2022-09-30T12:07:36;94563.69;;;30.77;nan
6680;BME280;3376;42.664;23.346;2022-09-30T12:10:15;94571.06;;;30.58;nan
6680;BME280;3376;42.664;23.346;2022-09-30T12:12:47;94577.34;;;30.21;nan
6680;BME280;3376;42.664;23.346;2022-09-30T12:15:17;94582.38;;;30.09;nan
6680;BME280;3376;42.664;23.346;2022-09-30T12:17:48;94582.97;;;29.92;nan
6680;BME280;3376;42.664;23.346;2022-09-30T12:20:19;94576.59;;;29.75;nan
6680;BME280;3376;42.664;23.346;2022-09-30T12:22:53;94569.50;;;29.84;nan
6680;BME280;3376;42.664;23.346;2022-09-30T12:25:25;94571.19;;;29.93;nan
6680;BME280;3376;42.664;23.346;2022-09-30T12:27:56;94569.00;;;29.63;nan
6680;BME280;3376;42.664;23.346;2022-09-30T12:30:46;94579.56;;;29.73;nan
6680;BME280;3376;42.664;23.346;2022-09-30T12:33:36;94578.69;;;29.59;nan
6680;BME280;3376;42.664;23.346;2022-09-30T12:36:31;94587.09;;;29.16;nan
6680;BME280;3376;42.664;23.346;2022-09-30T12:39:39;94583.56;;;28.78;nan
6680;BME280;3376;42.664;23.346;2022-09-30T12:42:30;94595.47;;;28.85;nan
6680;BME280;3376;42.664;23.346;2022-09-30T12:48:07;94580.19;;;28.72;nan
6680;BME280;3376;42.664;23.346;2022-09-30T12:50:41;94578.09;;;28.46;nan
6680;BME280;3376;42.664;23.346;2022-09-30T12:53:15;94576.72;;;28.48;nan
6680;BME280;3376;42.664;23.346;2022-09-30T12:55:44;94582.72;;;28.64;nan
6680;BME280;3376;42.664;23.346;2022-09-30T12:58:20;94579.81;;;28.60;nan
6680;BME280;3376;42.664;23.346;2022-09-30T13:01:03;94580.22;;;28.44;nan
6680;BME280;3376;42.664;23.346;2022-09-30T13:03:43;94576.94;;;28.05;nan
6680;BME280;3376;42.664;23.346;2022-09-30T13:06:13;94585.97;;;28.09;nan
6680;BME280;3376;42.664;23.346;2022-09-30T13:11:34;94589.78;;;28.26;nan
6680;BME280;3376;42.664;23.346;2022-09-30T13:14:16;94584.41;;;28.31;nan
6680;BME280;3376;42.664;23.346;2022-09-30T13:19:43;94566.06;;;28.48;nan
6680;BME280;3376;42.664;23.346;2022-09-30T13:25:17;94597.09;;;28.86;nan
6680;BME280;3376;42.664;23.346;2022-09-30T13:27:47;94593.41;;;28.82;nan
6680;BME280;3376;42.664;23.346;2022-09-30T13:30:37;94596.81;;;28.88;nan
6680;BME280;3376;42.664;23.346;2022-09-30T13:33:27;94596.00;;;28.87;nan
6680;BME280;3376;42.664;23.346;2022-09-30T13:35:58;94596.72;;;28.74;nan
6680;BME280;3376;42.664;23.346;2022-09-30T13:38:33;94543.84;;;28.34;nan
6680;BME280;3376;42.664;23.346;2022-09-30T13:41:05;94588.44;;;28.52;nan
6680;BME280;3376;42.664;23.346;2022-09-30T13:43:44;94473.06;;;27.76;nan
6680;BME280;3376;42.664;23.346;2022-09-30T13:46:23;94593.44;;;28.59;nan
6680;BME280;3376;42.664;23.346;2022-09-30T13:48:57;94597.97;;;28.58;nan
6680;BME280;3376;42.664;23.346;2022-09-30T13:51:28;94579.22;;;28.63;nan
6680;BME280;3376;42.664;23.346;2022-09-30T13:53:59;94590.94;;;28.67;nan
6680;BME280;3376;42.664;23.346;2022-09-30T13:56:32;94591.94;;;28.71;nan
6680;BME280;3376;42.664;23.346;2022-09-30T13:59:20;94596.09;;;28.59;nan
6680;BME280;3376;42.664;23.346;2022-09-30T14:02:22;94604.63;;;28.32;nan
6680;BME280;3376;42.664;23.346;2022-09-30T14:05:25;94607.03;;;28.05;nan
6680;BME280;3376;42.664;23.346;2022-09-30T14:08:11;94606.47;;;28.08;nan
6680;BME280;3376;42.664;23.346;2022-09-30T14:10:56;94614.22;;;28.05;nan
6680;BME280;3376;42.664;23.346;2022-09-30T14:13:36;94576.88;;;27.81;nan
6680;BME280;3376;42.664;23.346;2022-09-30T14:16:34;94610.28;;;28.02;nan
6680;BME280;3376;42.664;23.346;2022-09-30T14:21:56;94619.34;;;28.01;nan
6680;BME280;3376;42.664;23.346;2022-09-30T14:24:25;94617.09;;;27.79;nan
6680;BME280;3376;42.664;23.346;2022-09-30T14:27:05;94622.63;;;27.59;nan
6680;BME280;3376;42.664;23.346;2022-09-30T14:29:44;94625.03;;;27.56;nan